Cambridge Bay, Canada
Current Conditions -  °F | °C
As of 2:00 PM on Tuesday 21 Oct 2014 (Local Time) from CYCB Reporting Station
Blowing Snow Blowing Snow  
Wind Chill: -10°   Ceiling: 2000
Heat Index: 12°   Visibility: 0.25mi
Dew Point:   Wind: 35mph
Humidity: 85%   Direction: 50°NE
Pressure: 29.74"   Gusts: 40mph
Location:  69.12°N, 105.03°W
Report Text: CYCB 212000Z 05030G35KT 1/4SM +BLSN OVC020 M11/M13 A2974 RMKBLSN2SC6 VIS VRB 1/8-3/8 SLP074
Loading
Personal Weather Stations






























Interactive Weather Map
Tropical Storm Tracking
New forecast layout! Learn more

10-Day Weather Forecast

Advertisements
Track Severe Weather on mobile